Terminal Aerodrome Forecast
Issued by NWS Bismarck, ND

Home | Current Version | Previous Version | Text Only | Print | Product List | Glossary Off
Versions: 1 2 3 4 5 6 7 8 9 10 11 12 13 14 15

000
FTUS43 KBIS 280900 AAA
TAFBIS
TAF AMD
KBIS 280952Z 2810/2906 05006KT 4SM -SN BR SCT020 OVC045
      TEMPO 2810/2814 2SM -SN SCT015 OVC025
     FM281400 08008KT 4SM -SN SCT015 OVC025
     FM282000 07007KT P6SM VCSH BKN025 OVC050
     FM290100 04007KT P6SM FEW020 SCT070=

USA.gov is the U.S. government's official web portal to all federal, state and local government web resources and services.